Time;durP1;ratioP1;P1;durP2;ratioP2;P2;SDS_P1;SDS_P2;PMS_P1;PMS_P2;Temp;Humidity;BMP_temperature;BMP_pressure;BME280_temperature;BME280_humidity;BME280_pressure;Samples;Min_cycle;Max_cycle;Signal;HPM_P1;HPM_P2
2023/07/13 00:00:28;;;;;;;5.18;3.83;;;;;;;;;;5033625;28;20223;-77
2023/07/13 00:02:56;;;;;;;5.00;3.50;;;;;;;;;;5030627;28;20888;-77
2023/07/13 00:05:24;;;;;;;5.35;4.10;;;;;;;;;;5021146;28;20623;-78
2023/07/13 00:07:50;;;;;;;3.95;3.55;;;;;;;;;;5034791;28;20219;-76
2023/07/13 00:10:16;;;;;;;5.63;3.58;;;;;;;;;;5013280;28;20768;-77
2023/07/13 00:12:44;;;;;;;3.70;3.40;;;;;;;;;;5015429;28;20314;-79
2023/07/13 00:15:17;;;;;;;4.43;3.67;;;;;;;;;;5017289;28;20248;-78
2023/07/13 00:17:44;;;;;;;4.65;3.85;;;;;;;;;;5014458;28;20279;-78
2023/07/13 00:20:12;;;;;;;3.63;3.30;;;;;;;;;;5037218;28;20220;-78
2023/07/13 00:22:40;;;;;;;4.45;3.50;;;;;;;;;;5047326;28;20270;-78
2023/07/13 00:25:05;;;;;;;4.10;3.72;;;;;;;;;;5003987;28;20219;-78
2023/07/13 00:27:31;;;;;;;3.75;3.42;;;;;;;;;;5013728;28;20305;-78
2023/07/13 00:29:58;;;;;;;5.13;3.70;;;;;;;;;;5004075;28;20226;-78
2023/07/13 00:32:25;;;;;;;3.95;3.55;;;;;;;;;;5018699;28;20223;-78
2023/07/13 00:34:52;;;;;;;3.78;3.47;;;;;;;;;;5004102;28;20227;-79
2023/07/13 00:37:17;;;;;;;4.50;3.95;;;;;;;;;;5019113;28;20374;-78
2023/07/13 00:39:43;;;;;;;3.97;3.20;;;;;;;;;;5036303;28;20227;-78
2023/07/13 00:42:09;;;;;;;4.00;3.65;;;;;;;;;;5020828;28;20212;-79
2023/07/13 00:44:34;;;;;;;7.25;4.00;;;;;;;;;;5012625;28;20227;-78
2023/07/13 00:47:00;;;;;;;3.53;3.22;;;;;;;;;;5004319;28;20231;-78
2023/07/13 00:49:29;;;;;;;4.80;4.13;;;;;;;;;;5035716;28;20231;-78
2023/07/13 00:52:01;;;;;;;5.82;3.95;;;;;;;;;;5030079;28;20216;-77
2023/07/13 00:54:33;;;;;;;4.60;4.03;;;;;;;;;;4999717;28;20322;-77
2023/07/13 00:57:00;;;;;;;4.20;3.80;;;;;;;;;;5011558;28;20560;-78
2023/07/13 00:59:26;;;;;;;4.18;3.78;;;;;;;;;;5031600;28;20227;-78
2023/07/13 01:01:54;;;;;;;4.55;3.90;;;;;;;;;;5021348;28;20269;-78
2023/07/13 01:04:20;;;;;;;5.25;4.38;;;;;;;;;;5022800;28;20382;-78
2023/07/13 01:06:48;;;;;;;6.80;3.78;;;;;;;;;;5031961;28;20216;-78
2023/07/13 01:09:13;;;;;;;5.07;3.92;;;;;;;;;;5032706;28;20291;-79
2023/07/13 01:11:42;;;;;;;4.20;3.70;;;;;;;;;;5031517;28;20228;-78
2023/07/13 01:14:10;;;;;;;5.25;3.53;;;;;;;;;;5021185;28;20212;-78
2023/07/13 01:16:38;;;;;;;4.28;3.85;;;;;;;;;;5007249;28;20219;-78
2023/07/13 01:19:13;;;;;;;4.50;3.60;;;;;;;;;;5022239;28;20216;-78
2023/07/13 01:21:42;;;;;;;3.75;3.45;;;;;;;;;;5033438;28;20274;-77
2023/07/13 01:24:10;;;;;;;4.07;3.65;;;;;;;;;;5028520;28;20385;-79
2023/07/13 01:26:38;;;;;;;4.60;3.20;;;;;;;;;;5036535;28;20277;-78
2023/07/13 01:29:08;;;;;;;3.53;3.22;;;;;;;;;;5032881;28;20603;-77
2023/07/13 01:31:41;;;;;;;4.53;3.47;;;;;;;;;;5047408;28;20251;-78
2023/07/13 01:34:06;;;;;;;4.10;3.63;;;;;;;;;;5018405;28;20219;-78
2023/07/13 01:36:32;;;;;;;3.33;3.03;;;;;;;;;;5028758;28;21001;-78
2023/07/13 01:39:00;;;;;;;5.72;2.95;;;;;;;;;;5014216;28;20225;-78
2023/07/13 01:41:26;;;;;;;3.97;3.40;;;;;;;;;;5027259;28;20219;-78
2023/07/13 01:43:53;;;;;;;3.78;3.40;;;;;;;;;;5014084;28;20310;-77
2023/07/13 01:46:20;;;;;;;3.28;2.97;;;;;;;;;;5003564;28;20220;-78
2023/07/13 01:48:48;;;;;;;3.45;3.10;;;;;;;;;;5022241;28;20292;-77
2023/07/13 01:51:15;;;;;;;3.20;3.00;;;;;;;;;;5037456;28;20521;-78
2023/07/13 01:53:43;;;;;;;3.97;3.10;;;;;;;;;;5015127;28;20207;-78
2023/07/13 01:56:09;;;;;;;5.05;3.53;;;;;;;;;;5020122;28;20228;-79
2023/07/13 01:58:37;;;;;;;3.50;3.30;;;;;;;;;;5007950;28;20228;-78
2023/07/13 02:01:02;;;;;;;4.43;3.75;;;;;;;;;;5019491;28;20755;-79
2023/07/13 02:03:28;;;;;;;3.65;3.35;;;;;;;;;;5025509;28;20224;-77
2023/07/13 02:05:53;;;;;;;5.35;3.78;;;;;;;;;;5011155;28;20215;-78
2023/07/13 02:08:19;;;;;;;4.10;3.40;;;;;;;;;;5045315;28;20228;-77
2023/07/13 02:10:48;;;;;;;3.88;3.58;;;;;;;;;;5028323;28;20589;-78
2023/07/13 02:13:16;;;;;;;4.28;3.67;;;;;;;;;;5009119;28;20220;-78
2023/07/13 02:15:44;;;;;;;3.95;3.58;;;;;;;;;;5008222;28;20234;-77
2023/07/13 02:18:09;;;;;;;4.28;3.85;;;;;;;;;;5026600;28;20227;-78
2023/07/13 02:20:35;;;;;;;3.90;3.60;;;;;;;;;;5016024;28;20219;-79
2023/07/13 02:23:00;;;;;;;3.58;3.28;;;;;;;;;;5031733;28;20224;-79
2023/07/13 02:25:26;;;;;;;3.95;3.63;;;;;;;;;;5033701;28;20778;-77
2023/07/13 02:27:52;;;;;;;4.65;3.53;;;;;;;;;;5013788;28;20235;-77
2023/07/13 02:30:20;;;;;;;4.63;3.47;;;;;;;;;;5015067;28;20212;-77
2023/07/13 02:32:46;;;;;;;4.10;3.28;;;;;;;;;;5024673;28;20216;-79
2023/07/13 02:35:11;;;;;;;3.30;3.03;;;;;;;;;;5017536;28;20778;-78
2023/07/13 02:37:39;;;;;;;6.00;3.50;;;;;;;;;;5042570;28;20231;-78
2023/07/13 02:40:08;;;;;;;4.15;3.42;;;;;;;;;;5012916;28;20303;-78
2023/07/13 02:42:35;;;;;;;3.67;3.38;;;;;;;;;;5039166;28;20215;-78
2023/07/13 02:45:00;;;;;;;4.10;3.70;;;;;;;;;;5047295;28;20226;-78
2023/07/13 02:47:29;;;;;;;4.40;3.35;;;;;;;;;;5004538;28;20240;-80
2023/07/13 02:49:57;;;;;;;4.30;3.65;;;;;;;;;;5018456;28;20223;-79
2023/07/13 02:52:25;;;;;;;4.00;3.70;;;;;;;;;;5040100;28;20223;-79
2023/07/13 02:54:55;;;;;;;3.95;3.65;;;;;;;;;;5015021;28;20230;-79
2023/07/13 02:57:23;;;;;;;6.18;3.97;;;;;;;;;;5019871;28;20227;-79
2023/07/13 02:59:49;;;;;;;4.15;3.70;;;;;;;;;;4992785;28;20255;-79
2023/07/13 03:02:15;;;;;;;4.28;3.85;;;;;;;;;;5024579;28;20353;-78
2023/07/13 03:04:41;;;;;;;4.75;4.20;;;;;;;;;;5030196;28;20247;-78
2023/07/13 03:07:07;;;;;;;5.50;4.07;;;;;;;;;;5043024;28;20212;-78
2023/07/13 03:09:37;;;;;;;4.82;4.22;;;;;;;;;;5007581;28;20243;-79
2023/07/13 03:12:06;;;;;;;5.22;4.70;;;;;;;;;;5005709;28;20867;-77
2023/07/13 03:14:32;;;;;;;4.68;4.28;;;;;;;;;;5041019;28;20723;-77
2023/07/13 03:17:01;;;;;;;6.47;4.53;;;;;;;;;;5026873;28;20596;-79
2023/07/13 03:19:30;;;;;;;4.45;4.07;;;;;;;;;;5010762;28;20228;-78
2023/07/13 03:21:56;;;;;;;5.05;4.32;;;;;;;;;;4999398;28;20212;-79
2023/07/13 03:24:25;;;;;;;6.68;4.28;;;;;;;;;;5012458;28;20212;-78
2023/07/13 03:26:53;;;;;;;4.43;4.03;;;;;;;;;;5013583;28;20208;-79
2023/07/13 03:29:19;;;;;;;6.22;4.30;;;;;;;;;;5007182;28;20215;-78
2023/07/13 03:31:47;;;;;;;5.38;4.28;;;;;;;;;;5007235;28;20224;-78
2023/07/13 03:34:13;;;;;;;5.20;3.72;;;;;;;;;;4990861;28;20223;-79
2023/07/13 03:36:42;;;;;;;4.25;3.85;;;;;;;;;;4999484;28;20242;-79
2023/07/13 03:39:13;;;;;;;4.78;4.07;;;;;;;;;;5005902;28;20230;-77
2023/07/13 03:41:59;;;;;;;4.45;3.88;;;;;;;;;;5015779;28;20243;-78
2023/07/13 03:44:26;;;;;;;4.72;3.72;;;;;;;;;;4998936;28;20648;-79
2023/07/13 03:47:00;;;;;;;4.68;4.13;;;;;;;;;;5041579;28;20222;-78
2023/07/13 03:49:28;;;;;;;6.00;4.18;;;;;;;;;;5032256;28;20230;-78
2023/07/13 03:51:56;;;;;;;5.88;4.30;;;;;;;;;;5018025;28;20211;-78
2023/07/13 03:54:22;;;;;;;6.80;3.85;;;;;;;;;;5015310;28;20220;-77
2023/07/13 03:56:50;;;;;;;4.63;4.10;;;;;;;;;;5001847;28;20274;-79
2023/07/13 03:59:17;;;;;;;4.68;3.90;;;;;;;;;;5026307;28;20711;-77
2023/07/13 04:05:29;;;;;;;4.40;3.92;;;;;;;;;;5042341;28;20451;-78
2023/07/13 04:07:55;;;;;;;5.78;4.63;;;;;;;;;;5030053;28;20280;-78
2023/07/13 04:10:20;;;;;;;4.47;4.05;;;;;;;;;;5025342;28;20702;-78
2023/07/13 04:12:48;;;;;;;5.45;4.40;;;;;;;;;;5014862;28;20224;-79
2023/07/13 04:15:14;;;;;;;4.75;4.10;;;;;;;;;;5012486;28;20231;-78
2023/07/13 04:17:42;;;;;;;5.45;3.78;;;;;;;;;;5013915;28;20646;-78
2023/07/13 04:20:08;;;;;;;6.38;4.10;;;;;;;;;;5003878;28;20220;-78
2023/07/13 04:22:33;;;;;;;4.38;3.97;;;;;;;;;;5038550;28;20223;-78
2023/07/13 04:24:59;;;;;;;5.90;3.83;;;;;;;;;;5009708;28;20216;-78
2023/07/13 04:27:24;;;;;;;4.13;3.60;;;;;;;;;;5011745;28;20310;-77
2023/07/13 04:29:50;;;;;;;5.72;3.88;;;;;;;;;;5042433;28;20215;-78
2023/07/13 04:32:16;;;;;;;5.53;3.60;;;;;;;;;;5031522;28;20840;-78
2023/07/13 04:34:41;;;;;;;8.02;3.72;;;;;;;;;;4992315;28;20228;-77
2023/07/13 04:37:07;;;;;;;8.65;4.07;;;;;;;;;;5009905;28;20293;-77
2023/07/13 04:39:33;;;;;;;4.22;3.55;;;;;;;;;;5041793;28;20216;-79
2023/07/13 04:42:01;;;;;;;6.15;4.13;;;;;;;;;;5039749;28;20211;-78
2023/07/13 04:44:26;;;;;;;7.38;3.90;;;;;;;;;;5017908;28;20747;-77
2023/07/13 04:46:54;;;;;;;8.20;3.97;;;;;;;;;;5012561;28;20223;-78
2023/07/13 04:49:20;;;;;;;5.93;3.63;;;;;;;;;;5017093;28;20224;-78
2023/07/13 04:51:45;;;;;;;6.07;3.80;;;;;;;;;;5028536;28;20266;-78
2023/07/13 04:54:13;;;;;;;6.40;4.13;;;;;;;;;;5012446;28;20217;-77
2023/07/13 04:56:38;;;;;;;5.03;3.70;;;;;;;;;;5028878;28;20263;-77
2023/07/13 04:59:04;;;;;;;4.63;3.85;;;;;;;;;;5034227;28;20560;-79
2023/07/13 05:01:30;;;;;;;5.72;3.80;;;;;;;;;;5034016;28;20579;-79
2023/07/13 05:03:59;;;;;;;5.07;3.67;;;;;;;;;;5018363;28;20248;-78
2023/07/13 05:06:25;;;;;;;6.38;3.40;;;;;;;;;;5017184;28;20271;-79
2023/07/13 05:08:50;;;;;;;5.00;3.33;;;;;;;;;;5034945;28;20207;-78
2023/07/13 05:11:17;;;;;;;5.65;3.88;;;;;;;;;;5019022;28;20277;-78
2023/07/13 05:13:45;;;;;;;4.72;2.88;;;;;;;;;;5032211;28;20219;-78
2023/07/13 05:16:11;;;;;;;4.22;2.90;;;;;;;;;;4995937;28;20227;-79
2023/07/13 05:18:37;;;;;;;7.07;3.10;;;;;;;;;;5044429;28;20226;-78
2023/07/13 05:21:07;;;;;;;6.43;3.15;;;;;;;;;;5009793;28;20711;-77
2023/07/13 05:23:33;;;;;;;8.88;2.97;;;;;;;;;;5036168;28;20220;-77
2023/07/13 05:26:01;;;;;;;6.13;2.90;;;;;;;;;;5027774;28;20274;-78
2023/07/13 05:28:28;;;;;;;10.20;2.97;;;;;;;;;;5015356;28;20763;-77
2023/07/13 05:30:54;;;;;;;4.72;2.85;;;;;;;;;;5023940;28;20227;-79
2023/07/13 05:33:19;;;;;;;8.07;2.80;;;;;;;;;;5001113;28;20265;-78
2023/07/13 05:35:45;;;;;;;6.72;2.80;;;;;;;;;;5001745;28;20228;-79
2023/07/13 05:38:13;;;;;;;3.85;2.30;;;;;;;;;;5012904;28;20251;-79
2023/07/13 05:40:39;;;;;;;5.80;2.72;;;;;;;;;;4982760;28;20220;-78
2023/07/13 05:43:05;;;;;;;6.32;2.78;;;;;;;;;;5007951;28;20230;-77
2023/07/13 05:45:33;;;;;;;15.32;2.75;;;;;;;;;;5009472;28;20236;-77
2023/07/13 05:47:58;;;;;;;12.45;2.50;;;;;;;;;;5015086;28;20228;-77
2023/07/13 05:50:25;;;;;;;12.43;2.85;;;;;;;;;;5031473;28;20226;-79
2023/07/13 05:52:52;;;;;;;10.02;2.35;;;;;;;;;;5055861;28;20216;-79
2023/07/13 05:55:18;;;;;;;5.75;2.58;;;;;;;;;;5018687;28;20224;-79
2023/07/13 05:57:43;;;;;;;6.10;2.33;;;;;;;;;;5007009;28;20227;-78
2023/07/13 06:00:12;;;;;;;6.40;2.50;;;;;;;;;;5019169;28;20219;-79
2023/07/13 06:02:37;;;;;;;6.65;2.63;;;;;;;;;;5039275;28;20227;-81
2023/07/13 06:05:03;;;;;;;4.95;2.40;;;;;;;;;;5037985;28;20273;-78
2023/07/13 06:07:31;;;;;;;8.82;2.47;;;;;;;;;;4999632;28;20235;-79
2023/07/13 06:09:59;;;;;;;8.80;2.50;;;;;;;;;;5029513;28;20207;-78
2023/07/13 06:12:25;;;;;;;6.55;2.50;;;;;;;;;;5008212;28;20227;-77
2023/07/13 06:14:50;;;;;;;8.05;2.65;;;;;;;;;;5021849;28;20220;-79
2023/07/13 06:17:16;;;;;;;6.13;2.50;;;;;;;;;;5027202;28;20228;-77
2023/07/13 06:19:44;;;;;;;5.93;2.40;;;;;;;;;;5022530;28;20215;-76
2023/07/13 06:22:09;;;;;;;7.35;2.33;;;;;;;;;;5036429;28;20235;-77
2023/07/13 06:24:35;;;;;;;7.70;2.40;;;;;;;;;;5043130;28;20219;-76
2023/07/13 06:27:01;;;;;;;5.38;2.40;;;;;;;;;;5031923;28;20211;-79
2023/07/13 06:29:26;;;;;;;7.57;2.30;;;;;;;;;;5012531;28;20251;-78
2023/07/13 06:31:54;;;;;;;7.22;2.60;;;;;;;;;;5036522;28;20211;-75
2023/07/13 06:34:20;;;;;;;11.38;2.50;;;;;;;;;;5014828;28;20235;-77
2023/07/13 06:36:49;;;;;;;6.40;2.35;;;;;;;;;;5012437;28;20223;-78
2023/07/13 06:39:17;;;;;;;5.25;2.28;;;;;;;;;;5022627;28;20223;-79
2023/07/13 06:41:42;;;;;;;6.75;2.55;;;;;;;;;;5037574;28;20220;-79
2023/07/13 06:44:12;;;;;;;10.13;2.67;;;;;;;;;;5002268;28;20395;-78
2023/07/13 06:46:38;;;;;;;6.97;2.30;;;;;;;;;;5019927;28;20227;-78
2023/07/13 06:49:05;;;;;;;8.32;2.50;;;;;;;;;;5045581;28;20231;-78
2023/07/13 06:51:31;;;;;;;9.95;2.63;;;;;;;;;;5020753;28;20227;-77
2023/07/13 06:53:56;;;;;;;6.65;2.42;;;;;;;;;;5036260;28;20228;-78
2023/07/13 06:56:22;;;;;;;9.82;2.63;;;;;;;;;;5035078;28;20243;-79
2023/07/13 06:58:47;;;;;;;8.65;2.83;;;;;;;;;;5018327;28;20229;-79
2023/07/13 07:01:13;;;;;;;7.65;2.28;;;;;;;;;;5046394;28;20258;-78
2023/07/13 07:03:38;;;;;;;5.53;2.72;;;;;;;;;;5020048;28;20230;-81
2023/07/13 07:06:25;;;;;;;9.63;2.40;;;;;;;;;;5017181;28;20216;-77
2023/07/13 07:08:55;;;;;;;9.98;2.40;;;;;;;;;;5014267;28;20220;-77
2023/07/13 07:11:22;;;;;;;9.75;2.85;;;;;;;;;;5015149;28;20231;-79
2023/07/13 07:13:49;;;;;;;8.23;2.72;;;;;;;;;;5019638;28;20216;-79
2023/07/13 07:16:17;;;;;;;9.27;2.70;;;;;;;;;;5009481;28;20295;-78
2023/07/13 07:18:44;;;;;;;8.63;2.80;;;;;;;;;;5041725;28;20223;-80
2023/07/13 07:21:12;;;;;;;5.50;2.42;;;;;;;;;;5028595;28;20219;-81
2023/07/13 07:23:38;;;;;;;7.30;2.83;;;;;;;;;;5036022;28;20219;-77
2023/07/13 07:26:03;;;;;;;11.65;2.80;;;;;;;;;;5015228;28;20220;-80
2023/07/13 07:28:29;;;;;;;8.82;2.60;;;;;;;;;;5018420;28;20238;-80
2023/07/13 07:30:58;;;;;;;5.32;2.28;;;;;;;;;;5000166;28;20247;-79
2023/07/13 07:33:27;;;;;;;5.10;2.40;;;;;;;;;;5018548;28;20215;-78
2023/07/13 07:35:52;;;;;;;8.63;2.40;;;;;;;;;;5043786;28;20324;-79
2023/07/13 07:38:20;;;;;;;6.57;2.40;;;;;;;;;;5019018;28;20663;-78
2023/07/13 07:40:46;;;;;;;8.13;2.60;;;;;;;;;;5017084;28;20631;-78
2023/07/13 07:43:13;;;;;;;9.00;2.53;;;;;;;;;;5027659;28;20293;-78
2023/07/13 07:45:39;;;;;;;7.78;2.17;;;;;;;;;;5013865;28;20298;-79
2023/07/13 07:48:05;;;;;;;8.15;2.63;;;;;;;;;;4989628;28;20220;-78
2023/07/13 07:50:30;;;;;;;11.00;2.60;;;;;;;;;;5025932;28;20218;-78
2023/07/13 07:52:56;;;;;;;7.38;2.33;;;;;;;;;;5025410;28;20219;-80
2023/07/13 07:55:22;;;;;;;5.28;2.00;;;;;;;;;;5000778;28;20294;-79
2023/07/13 07:57:48;;;;;;;6.97;2.40;;;;;;;;;;5021573;28;20322;-78
2023/07/13 08:00:16;;;;;;;8.52;2.25;;;;;;;;;;5020021;28;20223;-79
2023/07/13 08:02:43;;;;;;;10.20;2.42;;;;;;;;;;5028829;28;20220;-80
2023/07/13 08:05:09;;;;;;;5.75;2.63;;;;;;;;;;5006343;28;20214;-78
2023/07/13 08:07:37;;;;;;;5.40;2.17;;;;;;;;;;5040362;28;20231;-78
2023/07/13 08:10:09;;;;;;;9.05;2.55;;;;;;;;;;5005752;28;20245;-79
2023/07/13 08:12:35;;;;;;;7.32;2.45;;;;;;;;;;5001800;28;20315;-77
2023/07/13 08:15:02;;;;;;;9.88;2.60;;;;;;;;;;5029263;28;20264;-78
2023/07/13 08:17:27;;;;;;;4.70;2.10;;;;;;;;;;5019182;28;20230;-79
2023/07/13 08:19:55;;;;;;;8.68;2.45;;;;;;;;;;5027416;28;20219;-77
2023/07/13 08:22:21;;;;;;;5.80;2.20;;;;;;;;;;5034482;28;20224;-79
2023/07/13 08:24:47;;;;;;;6.13;2.42;;;;;;;;;;5032627;28;20226;-77
2023/07/13 08:27:12;;;;;;;6.75;2.10;;;;;;;;;;5049940;28;20278;-78
2023/07/13 08:29:40;;;;;;;7.38;2.10;;;;;;;;;;5015548;28;20227;-77
2023/07/13 08:32:09;;;;;;;5.32;2.10;;;;;;;;;;5020004;28;21145;-79
2023/07/13 08:34:36;;;;;;;8.65;2.28;;;;;;;;;;5017379;28;20228;-81
2023/07/13 08:37:02;;;;;;;8.48;2.47;;;;;;;;;;5013505;28;20223;-78
2023/07/13 08:39:29;;;;;;;5.82;1.90;;;;;;;;;;5030922;28;20673;-79
2023/07/13 08:42:06;;;;;;;9.57;2.78;;;;;;;;;;5009402;28;20249;-80
2023/07/13 08:44:43;;;;;;;6.18;2.20;;;;;;;;;;5031382;28;20311;-79
2023/07/13 08:47:11;;;;;;;6.50;2.13;;;;;;;;;;5047821;28;20273;-79
2023/07/13 08:49:37;;;;;;;5.65;1.98;;;;;;;;;;5009280;28;20211;-76
2023/07/13 08:52:13;;;;;;;4.03;2.10;;;;;;;;;;5019168;28;20273;-80
2023/07/13 08:54:41;;;;;;;4.10;2.05;;;;;;;;;;5034091;28;21026;-77
2023/07/13 08:57:19;;;;;;;4.80;1.98;;;;;;;;;;5019248;28;20300;-79
2023/07/13 08:59:45;;;;;;;4.35;2.05;;;;;;;;;;5012855;28;20224;-77
2023/07/13 09:02:40;;;;;;;7.43;2.25;;;;;;;;;;5026638;28;20223;-79
2023/07/13 09:05:21;;;;;;;5.03;1.88;;;;;;;;;;5033139;28;20774;-80
2023/07/13 09:08:22;;;;;;;3.20;1.80;;;;;;;;;;5035780;28;20232;-79
2023/07/13 09:11:03;;;;;;;6.18;1.90;;;;;;;;;;5032491;28;20231;-81
2023/07/13 09:13:35;;;;;;;4.57;2.33;;;;;;;;;;5044300;28;20803;-81
2023/07/13 09:16:03;;;;;;;6.65;2.10;;;;;;;;;;5031598;28;20847;-80
2023/07/13 09:18:29;;;;;;;7.28;2.05;;;;;;;;;;4997991;28;20223;-77
2023/07/13 09:21:17;;;;;;;4.40;1.90;;;;;;;;;;5020939;28;20297;-79
2023/07/13 09:23:45;;;;;;;6.25;1.98;;;;;;;;;;5043742;28;20242;-77
2023/07/13 09:26:21;;;;;;;3.78;2.05;;;;;;;;;;5020633;28;20676;-79
2023/07/13 09:29:00;;;;;;;4.97;1.83;;;;;;;;;;5037543;28;20738;-80
2023/07/13 09:31:46;;;;;;;5.72;1.70;;;;;;;;;;5011185;28;20215;-80
2023/07/13 09:34:13;;;;;;;4.63;2.25;;;;;;;;;;5028568;28;20236;-79
2023/07/13 09:36:41;;;;;;;5.82;1.80;;;;;;;;;;5021476;28;20779;-78
2023/07/13 09:39:28;;;;;;;6.28;1.95;;;;;;;;;;4984234;28;20285;-78
2023/07/13 09:42:01;;;;;;;4.13;1.80;;;;;;;;;;5012491;28;20619;-78
2023/07/13 09:44:33;;;;;;;5.40;1.88;;;;;;;;;;5037604;28;20881;-78
2023/07/13 09:46:59;;;;;;;5.68;1.73;;;;;;;;;;5025571;28;20223;-77
2023/07/13 09:49:28;;;;;;;5.15;2.13;;;;;;;;;;5009138;28;20216;-80
2023/07/13 09:52:15;;;;;;;4.25;1.75;;;;;;;;;;5031543;28;20269;-78
2023/07/13 09:54:53;;;;;;;6.65;1.92;;;;;;;;;;5020545;28;20274;-79
2023/07/13 09:57:20;;;;;;;6.70;2.13;;;;;;;;;;5031415;28;20405;-79
2023/07/13 09:59:50;;;;;;;3.95;2.03;;;;;;;;;;4997878;28;20712;-79
2023/07/13 10:02:41;;;;;;;4.43;1.73;;;;;;;;;;5026637;28;20223;-81
2023/07/13 10:05:15;;;;;;;5.13;1.88;;;;;;;;;;5013734;28;20224;-80
2023/07/13 10:07:45;;;;;;;5.32;1.85;;;;;;;;;;5021567;28;20219;-78
2023/07/13 10:10:19;;;;;;;3.85;1.85;;;;;;;;;;4986152;28;20207;-78
2023/07/13 10:12:47;;;;;;;7.38;2.15;;;;;;;;;;5022733;28;20275;-80
2023/07/13 10:15:19;;;;;;;3.70;1.80;;;;;;;;;;5035760;28;20216;-80
2023/07/13 10:17:44;;;;;;;2.78;1.90;;;;;;;;;;5023034;28;20226;-78
2023/07/13 10:20:12;;;;;;;3.63;1.67;;;;;;;;;;5020980;28;20200;-79
2023/07/13 10:23:03;;;;;;;2.58;1.45;;;;;;;;;;5024689;28;20695;-80
2023/07/13 10:25:33;;;;;;;4.03;1.70;;;;;;;;;;5027652;28;20228;-79
2023/07/13 10:28:09;;;;;;;4.35;1.60;;;;;;;;;;5018490;28;20230;-79
2023/07/13 10:30:35;;;;;;;2.55;1.55;;;;;;;;;;5010524;28;20208;-79
2023/07/13 10:33:02;;;;;;;7.20;1.63;;;;;;;;;;5005545;28;20211;-78
2023/07/13 10:35:28;;;;;;;3.97;1.67;;;;;;;;;;5033444;28;20231;-79
2023/07/13 10:37:57;;;;;;;5.97;1.65;;;;;;;;;;5006081;28;20287;-82
2023/07/13 10:40:29;;;;;;;3.55;1.80;;;;;;;;;;5007864;28;20255;-80
2023/07/13 10:42:56;;;;;;;3.00;1.98;;;;;;;;;;5027162;28;20229;-79
2023/07/13 10:45:22;;;;;;;3.08;1.92;;;;;;;;;;5027425;28;20243;-80
2023/07/13 10:47:49;;;;;;;4.88;1.67;;;;;;;;;;4996095;28;20227;-80
2023/07/13 10:50:20;;;;;;;4.15;1.50;;;;;;;;;;5011249;28;20982;-80
2023/07/13 10:52:50;;;;;;;2.28;1.45;;;;;;;;;;5031236;28;20211;-79
2023/07/13 10:55:42;;;;;;;3.58;1.60;;;;;;;;;;5033829;28;20277;-81
2023/07/13 10:58:21;;;;;;;3.03;1.65;;;;;;;;;;5033812;28;20223;-79
2023/07/13 11:00:57;;;;;;;2.15;1.42;;;;;;;;;;5019496;28;20691;-79
2023/07/13 11:03:23;;;;;;;3.85;1.80;;;;;;;;;;4997467;28;20227;-78
2023/07/13 11:05:51;;;;;;;2.70;1.63;;;;;;;;;;5008582;28;20680;-79
2023/07/13 11:08:31;;;;;;;2.38;1.50;;;;;;;;;;5029184;28;20220;-79
2023/07/13 11:10:57;;;;;;;3.15;1.52;;;;;;;;;;5010534;28;20281;-81
2023/07/13 11:13:55;;;;;;;4.10;1.50;;;;;;;;;;5016297;28;20685;-78
2023/07/13 11:16:20;;;;;;;2.70;1.60;;;;;;;;;;5008663;28;20234;-77
2023/07/13 11:19:06;;;;;;;5.10;1.60;;;;;;;;;;5016978;28;20224;-80
2023/07/13 11:21:34;;;;;;;4.05;1.45;;;;;;;;;;4955833;28;20640;-80
2023/07/13 11:24:16;;;;;;;3.65;1.50;;;;;;;;;;5034923;28;20246;-79
2023/07/13 11:26:48;;;;;;;2.58;1.60;;;;;;;;;;5031452;28;20224;-78
2023/07/13 11:29:32;;;;;;;3.97;1.50;;;;;;;;;;5044443;28;20238;-79
2023/07/13 11:32:03;;;;;;;1.65;1.20;;;;;;;;;;5029600;28;20356;-79
2023/07/13 11:34:31;;;;;;;5.07;1.48;;;;;;;;;;5010416;28;20386;-81
2023/07/13 11:36:59;;;;;;;1.33;1.23;;;;;;;;;;5020131;28;20688;-79
2023/07/13 11:39:33;;;;;;;1.73;1.30;;;;;;;;;;5029935;28;20302;-80
2023/07/13 11:42:06;;;;;;;2.95;1.48;;;;;;;;;;5034408;28;20215;-80
2023/07/13 11:44:32;;;;;;;3.65;1.70;;;;;;;;;;5028974;28;20242;-78
2023/07/13 11:47:00;;;;;;;1.73;1.40;;;;;;;;;;5020462;28;20216;-79
2023/07/13 11:49:40;;;;;;;3.10;1.35;;;;;;;;;;5021511;28;20254;-79
2023/07/13 11:52:06;;;;;;;2.85;1.80;;;;;;;;;;5015368;28;20251;-82
2023/07/13 11:54:41;;;;;;;3.90;1.50;;;;;;;;;;5012138;28;20246;-82
2023/07/13 11:57:18;;;;;;;2.20;1.50;;;;;;;;;;4997388;28;20218;-79
2023/07/13 11:59:43;;;;;;;3.42;1.60;;;;;;;;;;5033013;28;20215;-78
2023/07/13 12:02:16;;;;;;;3.50;1.90;;;;;;;;;;5018094;28;20212;-81
2023/07/13 12:04:44;;;;;;;3.25;1.63;;;;;;;;;;5038477;28;20215;-78
2023/07/13 12:07:19;;;;;;;3.13;1.50;;;;;;;;;;5020024;28;20269;-79
2023/07/13 12:09:44;;;;;;;2.50;1.70;;;;;;;;;;5022625;28;20298;-80
2023/07/13 12:12:15;;;;;;;2.70;1.75;;;;;;;;;;5036679;28;20239;-77
2023/07/13 12:14:40;;;;;;;3.63;2.05;;;;;;;;;;5026445;28;20231;-77
2023/07/13 12:17:14;;;;;;;2.25;1.60;;;;;;;;;;5031255;28;20216;-76
2023/07/13 12:19:40;;;;;;;3.38;1.67;;;;;;;;;;4998283;28;20605;-78
2023/07/13 12:22:08;;;;;;;9.93;3.05;;;;;;;;;;5018059;28;21016;-77
2023/07/13 12:24:36;;;;;;;6.88;3.08;;;;;;;;;;5035178;28;20247;-77
2023/07/13 12:27:03;;;;;;;5.75;2.65;;;;;;;;;;4992696;28;20219;-80
2023/07/13 12:29:29;;;;;;;9.38;3.80;;;;;;;;;;5033082;28;20274;-78
2023/07/13 12:31:55;;;;;;;4.63;2.03;;;;;;;;;;5003244;28;20711;-77
2023/07/13 12:34:22;;;;;;;2.92;2.00;;;;;;;;;;5013379;28;20220;-76
2023/07/13 12:37:01;;;;;;;2.72;2.08;;;;;;;;;;5045932;28;20602;-76
2023/07/13 12:39:36;;;;;;;8.57;2.65;;;;;;;;;;5029116;28;20450;-77
2023/07/13 12:42:27;;;;;;;5.22;2.88;;;;;;;;;;5031919;28;20331;-78
2023/07/13 12:44:58;;;;;;;5.70;2.20;;;;;;;;;;5046952;28;20220;-78
2023/07/13 12:47:24;;;;;;;4.15;2.33;;;;;;;;;;5030165;28;20231;-79
2023/07/13 12:49:55;;;;;;;5.10;3.03;;;;;;;;;;5016153;28;20224;-77
2023/07/13 12:52:34;;;;;;;5.43;2.63;;;;;;;;;;5018265;28;20219;-78
2023/07/13 12:55:04;;;;;;;3.00;2.50;;;;;;;;;;5045022;28;20782;-77
2023/07/13 12:57:31;;;;;;;2.78;2.33;;;;;;;;;;5028442;28;20231;-77
2023/07/13 13:00:04;;;;;;;3.50;2.60;;;;;;;;;;5044951;28;20208;-77
2023/07/13 13:02:35;;;;;;;4.45;2.60;;;;;;;;;;4989732;28;20226;-78
2023/07/13 13:05:05;;;;;;;4.30;2.65;;;;;;;;;;4993642;28;20215;-77
2023/07/13 13:07:35;;;;;;;2.55;2.13;;;;;;;;;;4990010;28;20231;-78
2023/07/13 13:10:01;;;;;;;3.83;2.60;;;;;;;;;;5023156;28;20692;-77
2023/07/13 13:12:26;;;;;;;3.40;2.72;;;;;;;;;;5029157;28;20215;-75
2023/07/13 13:14:54;;;;;;;3.15;2.67;;;;;;;;;;5038769;28;20228;-78
2023/07/13 13:17:27;;;;;;;2.92;2.42;;;;;;;;;;5024580;28;20238;-77
2023/07/13 13:19:55;;;;;;;4.45;2.55;;;;;;;;;;5038301;28;20216;-76
2023/07/13 13:22:21;;;;;;;2.83;2.58;;;;;;;;;;5026311;28;20222;-77
2023/07/13 13:24:47;;;;;;;2.90;2.22;;;;;;;;;;5029390;28;20216;-77
2023/07/13 13:27:18;;;;;;;2.70;2.50;;;;;;;;;;4997563;28;20777;-76
2023/07/13 13:29:46;;;;;;;2.20;2.00;;;;;;;;;;4998399;28;20231;-77
2023/07/13 13:32:15;;;;;;;2.05;1.83;;;;;;;;;;5009507;28;20663;-76
2023/07/13 13:34:41;;;;;;;2.20;2.00;;;;;;;;;;5023187;28;20294;-77
2023/07/13 13:37:19;;;;;;;2.88;1.85;;;;;;;;;;5011044;28;20218;-77
2023/07/13 13:39:47;;;;;;;2.35;1.77;;;;;;;;;;5029563;28;20223;-77
2023/07/13 13:42:15;;;;;;;1.70;1.60;;;;;;;;;;5008413;28;20216;-76
2023/07/13 13:44:41;;;;;;;1.50;1.38;;;;;;;;;;5020005;28;20223;-78
2023/07/13 13:47:22;;;;;;;1.40;1.30;;;;;;;;;;5001904;28;20223;-78
2023/07/13 13:49:50;;;;;;;1.20;1.10;;;;;;;;;;4986487;28;20224;-79
2023/07/13 13:52:15;;;;;;;1.58;1.30;;;;;;;;;;5034508;28;20302;-80
2023/07/13 13:54:41;;;;;;;1.70;1.38;;;;;;;;;;5017735;28;20222;-80
2023/07/13 13:57:08;;;;;;;1.33;1.10;;;;;;;;;;5019195;28;20200;-78
2023/07/13 13:59:40;;;;;;;1.70;1.10;;;;;;;;;;5002386;28;20327;-78
2023/07/13 14:02:21;;;;;;;1.70;1.10;;;;;;;;;;5015652;28;20243;-80
2023/07/13 14:04:46;;;;;;;2.50;1.08;;;;;;;;;;5024203;28;20577;-79
2023/07/13 14:07:17;;;;;;;0.93;0.93;;;;;;;;;;5016984;28;20222;-79
2023/07/13 14:09:53;;;;;;;1.42;1.05;;;;;;;;;;5030253;28;20281;-79
2023/07/13 14:12:21;;;;;;;0.93;0.90;;;;;;;;;;5030050;28;20286;-79
2023/07/13 14:14:49;;;;;;;1.02;1.02;;;;;;;;;;5017847;28;20759;-80
2023/07/13 14:17:21;;;;;;;0.73;0.73;;;;;;;;;;4993593;28;20532;-79
2023/07/13 14:19:51;;;;;;;1.30;1.20;;;;;;;;;;5017055;28;20220;-79
2023/07/13 14:22:20;;;;;;;1.63;0.90;;;;;;;;;;5034586;28;20240;-79
2023/07/13 14:24:48;;;;;;;0.77;0.77;;;;;;;;;;5044818;28;20227;-78
2023/07/13 14:27:16;;;;;;;0.88;0.88;;;;;;;;;;5013613;28;20247;-78
2023/07/13 14:29:44;;;;;;;1.30;1.20;;;;;;;;;;4992862;28;20298;-79
2023/07/13 14:32:10;;;;;;;2.97;0.93;;;;;;;;;;4989369;28;20270;-79
2023/07/13 14:34:36;;;;;;;0.90;0.90;;;;;;;;;;5016848;28;20276;-79
2023/07/13 14:37:04;;;;;;;2.92;1.00;;;;;;;;;;5010769;28;20212;-80
2023/07/13 14:39:31;;;;;;;1.02;0.85;;;;;;;;;;5001841;28;20219;-79
2023/07/13 14:41:57;;;;;;;1.10;1.00;;;;;;;;;;5014317;28;20231;-79
2023/07/13 14:44:31;;;;;;;1.20;1.10;;;;;;;;;;5007815;28;20227;-78
2023/07/13 14:47:01;;;;;;;0.75;0.75;;;;;;;;;;5026824;28;20230;-78
2023/07/13 14:49:33;;;;;;;0.70;0.70;;;;;;;;;;5023171;28;20231;-79
2023/07/13 14:52:19;;;;;;;1.05;0.80;;;;;;;;;;5009833;28;20242;-79
2023/07/13 14:54:48;;;;;;;1.00;0.90;;;;;;;;;;5016814;28;20238;-77
2023/07/13 14:57:16;;;;;;;0.60;0.60;;;;;;;;;;5029189;28;20227;-78